KRME/RME METAR and TAF weather

Enter ICAO airport designator
Station Type Date Time Source
KRME METAR 2020/01/23 05:53 UTC NOAA

KRME 230553Z AUTO 14005KT 10SM CLR M06/M08 A3035 RMK AO2 SLP284 T10611083 11028 21067 58005


Station Type Date Time Source
KRME Decoded METAR 2020/01/23 05:53 UTC NOAA

GRIFFISS AIRFIELD, NY, United States (KRME) 43-14N 075-24W
Jan 23, 2020 - 12:53 AM EST / 2020.01.23 0553 UTC
Wind: from the SE (140 degrees) at 6 MPH (5 KT):0
Visibility: 10 mile(s):0
Sky conditions: clear
Temperature: 21.0 F (-6.1 C)
Windchill: 14 F (-10 C):1
Dew Point: 17.1 F (-8.3 C)
Relative Humidity: 84%
Pressure (altimeter): 30.35 in. Hg (1027 hPa)
Pressure tendency: 0.01 inches (0.5 hPa) lower than three hours ago
ob: KRME 230553Z AUTO 14005KT 10SM CLR M06/M08 A3035 RMK AO2 SLP284 T10611083 11028 21067 58005
cycle: 6

Station Type Date Time Source
KRME TAF 2020/01/23 06:30 UTC NOAA

TAF KRME 230528Z 2306/2406 11005KT P6SM FEW150 BKN200

Example: see airport list